sensor_id;sensor_type;location;lat;lon;timestamp;temperature;humidity
31991;DHT22;18508;49.386;8.370;2023-04-28T00:01:20;12.50;1.00
31991;DHT22;18508;49.386;8.370;2023-04-28T00:03:48;12.50;1.00
31991;DHT22;18508;49.386;8.370;2023-04-28T00:06:16;12.50;99.90
31991;DHT22;18508;49.386;8.370;2023-04-28T00:08:44;12.50;99.90
31991;DHT22;18508;49.386;8.370;2023-04-28T00:11:14;12.50;99.90
31991;DHT22;18508;49.386;8.370;2023-04-28T00:13:44;12.50;99.90
31991;DHT22;18508;49.386;8.370;2023-04-28T00:16:12;12.50;23.80
31991;DHT22;18508;49.386;8.370;2023-04-28T00:18:40;12.50;1.00
31991;DHT22;18508;49.386;8.370;2023-04-28T00:21:12;12.40;1.00
31991;DHT22;18508;49.386;8.370;2023-04-28T00:23:41;12.40;99.90
31991;DHT22;18508;49.386;8.370;2023-04-28T00:26:09;12.30;1.00
31991;DHT22;18508;49.386;8.370;2023-04-28T00:28:39;12.20;99.90
31991;DHT22;18508;49.386;8.370;2023-04-28T00:31:09;12.10;99.90
31991;DHT22;18508;49.386;8.370;2023-04-28T00:33:38;12.10;99.90
31991;DHT22;18508;49.386;8.370;2023-04-28T00:36:07;12.10;1.00
31991;DHT22;18508;49.386;8.370;2023-04-28T00:38:35;12.10;99.90
31991;DHT22;18508;49.386;8.370;2023-04-28T00:41:03;12.00;99.90
31991;DHT22;18508;49.386;8.370;2023-04-28T00:43:44;12.00;99.90
31991;DHT22;18508;49.386;8.370;2023-04-28T00:46:19;11.90;1.00
31991;DHT22;18508;49.386;8.370;2023-04-28T00:48:50;11.90;99.90
31991;DHT22;18508;49.386;8.370;2023-04-28T00:51:20;11.80;99.90
31991;DHT22;18508;49.386;8.370;2023-04-28T00:53:51;11.80;99.90
31991;DHT22;18508;49.386;8.370;2023-04-28T00:56:19;11.70;99.90
31991;DHT22;18508;49.386;8.370;2023-04-28T00:58:48;11.60;99.90
31991;DHT22;18508;49.386;8.370;2023-04-28T01:01:16;11.60;99.90
31991;DHT22;18508;49.386;8.370;2023-04-28T01:03:47;11.70;99.90
31991;DHT22;18508;49.386;8.370;2023-04-28T01:06:16;11.70;52.50
31991;DHT22;18508;49.386;8.370;2023-04-28T01:08:47;11.70;1.00
31991;DHT22;18508;49.386;8.370;2023-04-28T01:11:16;11.60;1.00
31991;DHT22;18508;49.386;8.370;2023-04-28T01:13:44;11.50;40.90
31991;DHT22;18508;49.386;8.370;2023-04-28T01:16:15;11.50;1.00
31991;DHT22;18508;49.386;8.370;2023-04-28T01:18:46;11.60;99.90
31991;DHT22;18508;49.386;8.370;2023-04-28T01:21:24;11.50;99.90
31991;DHT22;18508;49.386;8.370;2023-04-28T01:23:56;11.40;25.90
31991;DHT22;18508;49.386;8.370;2023-04-28T01:26:28;11.50;99.90
31991;DHT22;18508;49.386;8.370;2023-04-28T01:28:58;11.40;99.90
31991;DHT22;18508;49.386;8.370;2023-04-28T01:31:27;11.50;99.90
31991;DHT22;18508;49.386;8.370;2023-04-28T01:33:57;11.40;99.90
31991;DHT22;18508;49.386;8.370;2023-04-28T01:36:26;11.40;99.90
31991;DHT22;18508;49.386;8.370;2023-04-28T01:38:58;11.40;99.90
31991;DHT22;18508;49.386;8.370;2023-04-28T01:41:26;11.40;99.90
31991;DHT22;18508;49.386;8.370;2023-04-28T01:43:54;11.40;99.90
31991;DHT22;18508;49.386;8.370;2023-04-28T01:46:24;11.40;99.90
31991;DHT22;18508;49.386;8.370;2023-04-28T01:48:53;11.30;99.90
31991;DHT22;18508;49.386;8.370;2023-04-28T01:51:21;11.30;99.90
31991;DHT22;18508;49.386;8.370;2023-04-28T01:53:48;11.30;92.20
31991;DHT22;18508;49.386;8.370;2023-04-28T01:56:18;11.30;99.90
31991;DHT22;18508;49.386;8.370;2023-04-28T01:58:46;11.30;99.90
31991;DHT22;18508;49.386;8.370;2023-04-28T02:01:14;11.30;99.90
31991;DHT22;18508;49.386;8.370;2023-04-28T02:03:42;11.30;99.90
31991;DHT22;18508;49.386;8.370;2023-04-28T02:06:10;11.20;99.90
31991;DHT22;18508;49.386;8.370;2023-04-28T02:08:39;11.30;99.90
31991;DHT22;18508;49.386;8.370;2023-04-28T02:11:09;11.30;99.90
31991;DHT22;18508;49.386;8.370;2023-04-28T02:13:38;11.30;99.90
31991;DHT22;18508;49.386;8.370;2023-04-28T02:16:07;11.30;99.90
31991;DHT22;18508;49.386;8.370;2023-04-28T02:18:35;11.20;99.90
31991;DHT22;18508;49.386;8.370;2023-04-28T02:21:09;11.30;99.90
31991;DHT22;18508;49.386;8.370;2023-04-28T02:23:38;11.20;99.90
31991;DHT22;18508;49.386;8.370;2023-04-28T02:26:06;11.20;99.90
31991;DHT22;18508;49.386;8.370;2023-04-28T02:28:35;11.20;99.90
31991;DHT22;18508;49.386;8.370;2023-04-28T02:31:05;11.20;99.90
31991;DHT22;18508;49.386;8.370;2023-04-28T02:33:35;11.20;99.90
31991;DHT22;18508;49.386;8.370;2023-04-28T02:36:05;11.20;99.90
31991;DHT22;18508;49.386;8.370;2023-04-28T02:38:34;11.10;99.90
31991;DHT22;18508;49.386;8.370;2023-04-28T02:41:03;11.10;99.90
31991;DHT22;18508;49.386;8.370;2023-04-28T02:43:32;11.10;99.90
31991;DHT22;18508;49.386;8.370;2023-04-28T02:46:02;11.10;99.90
31991;DHT22;18508;49.386;8.370;2023-04-28T02:48:32;11.20;99.90
31991;DHT22;18508;49.386;8.370;2023-04-28T02:51:02;11.20;99.90
31991;DHT22;18508;49.386;8.370;2023-04-28T02:53:31;11.10;99.90
31991;DHT22;18508;49.386;8.370;2023-04-28T02:55:59;11.20;99.90
31991;DHT22;18508;49.386;8.370;2023-04-28T02:58:30;11.30;99.90
31991;DHT22;18508;49.386;8.370;2023-04-28T03:00:58;11.20;99.90
31991;DHT22;18508;49.386;8.370;2023-04-28T03:03:29;11.20;99.90
31991;DHT22;18508;49.386;8.370;2023-04-28T03:05:59;11.20;99.90
31991;DHT22;18508;49.386;8.370;2023-04-28T03:08:28;12.60;99.90
31991;DHT22;18508;49.386;8.370;2023-04-28T03:10:56;11.10;99.90
31991;DHT22;18508;49.386;8.370;2023-04-28T03:13:27;10.90;99.90
31991;DHT22;18508;49.386;8.370;2023-04-28T03:15:55;11.00;99.90
31991;DHT22;18508;49.386;8.370;2023-04-28T03:18:24;11.00;99.90
31991;DHT22;18508;49.386;8.370;2023-04-28T03:20:52;11.00;99.90
31991;DHT22;18508;49.386;8.370;2023-04-28T03:23:22;11.00;99.90
31991;DHT22;18508;49.386;8.370;2023-04-28T03:25:50;11.10;99.90
31991;DHT22;18508;49.386;8.370;2023-04-28T03:28:18;11.10;99.90
31991;DHT22;18508;49.386;8.370;2023-04-28T03:30:46;11.10;99.90
31991;DHT22;18508;49.386;8.370;2023-04-28T03:33:14;11.10;99.90
31991;DHT22;18508;49.386;8.370;2023-04-28T03:35:42;11.10;99.90
31991;DHT22;18508;49.386;8.370;2023-04-28T03:38:11;11.10;99.90
31991;DHT22;18508;49.386;8.370;2023-04-28T03:40:41;11.10;99.90
31991;DHT22;18508;49.386;8.370;2023-04-28T03:43:10;11.10;99.90
31991;DHT22;18508;49.386;8.370;2023-04-28T03:45:38;11.10;99.90
31991;DHT22;18508;49.386;8.370;2023-04-28T03:48:07;11.00;99.90
31991;DHT22;18508;49.386;8.370;2023-04-28T03:50:35;11.10;99.90
31991;DHT22;18508;49.386;8.370;2023-04-28T03:53:04;11.20;99.90
31991;DHT22;18508;49.386;8.370;2023-04-28T03:55:32;11.10;99.90
31991;DHT22;18508;49.386;8.370;2023-04-28T03:58:02;11.10;99.90
31991;DHT22;18508;49.386;8.370;2023-04-28T04:00:30;11.20;99.90
31991;DHT22;18508;49.386;8.370;2023-04-28T04:02:58;11.10;99.90
31991;DHT22;18508;49.386;8.370;2023-04-28T04:05:26;11.20;99.90
31991;DHT22;18508;49.386;8.370;2023-04-28T04:07:55;11.10;99.90
31991;DHT22;18508;49.386;8.370;2023-04-28T04:10:24;11.20;99.90
31991;DHT22;18508;49.386;8.370;2023-04-28T04:12:54;11.20;99.90
31991;DHT22;18508;49.386;8.370;2023-04-28T04:15:24;11.20;99.90
31991;DHT22;18508;49.386;8.370;2023-04-28T04:17:54;11.20;99.90
31991;DHT22;18508;49.386;8.370;2023-04-28T04:20:23;11.20;99.90
31991;DHT22;18508;49.386;8.370;2023-04-28T04:22:53;11.20;99.90
31991;DHT22;18508;49.386;8.370;2023-04-28T04:25:21;11.20;99.90
31991;DHT22;18508;49.386;8.370;2023-04-28T04:27:49;11.20;99.90
31991;DHT22;18508;49.386;8.370;2023-04-28T04:30:17;11.20;99.90
31991;DHT22;18508;49.386;8.370;2023-04-28T04:32:47;11.20;99.90
31991;DHT22;18508;49.386;8.370;2023-04-28T04:35:15;11.30;99.90
31991;DHT22;18508;49.386;8.370;2023-04-28T04:37:44;11.30;99.90
31991;DHT22;18508;49.386;8.370;2023-04-28T04:40:13;11.30;99.90
31991;DHT22;18508;49.386;8.370;2023-04-28T04:42:41;11.30;99.90
31991;DHT22;18508;49.386;8.370;2023-04-28T04:45:10;11.30;99.90
31991;DHT22;18508;49.386;8.370;2023-04-28T04:47:39;11.30;99.90
31991;DHT22;18508;49.386;8.370;2023-04-28T04:50:10;11.30;99.90
31991;DHT22;18508;49.386;8.370;2023-04-28T04:52:38;11.30;99.90
31991;DHT22;18508;49.386;8.370;2023-04-28T04:55:08;11.30;99.90
31991;DHT22;18508;49.386;8.370;2023-04-28T04:57:41;11.30;99.90
31991;DHT22;18508;49.386;8.370;2023-04-28T05:00:11;11.40;99.90
31991;DHT22;18508;49.386;8.370;2023-04-28T05:02:41;11.40;99.90
31991;DHT22;18508;49.386;8.370;2023-04-28T05:05:10;11.40;99.90
31991;DHT22;18508;49.386;8.370;2023-04-28T05:07:47;11.50;99.90
31991;DHT22;18508;49.386;8.370;2023-04-28T05:10:16;11.40;99.90
31991;DHT22;18508;49.386;8.370;2023-04-28T05:12:44;11.40;99.90
31991;DHT22;18508;49.386;8.370;2023-04-28T05:15:15;11.40;99.90
31991;DHT22;18508;49.386;8.370;2023-04-28T05:17:43;11.50;99.90
31991;DHT22;18508;49.386;8.370;2023-04-28T05:20:14;11.40;99.90
31991;DHT22;18508;49.386;8.370;2023-04-28T05:22:42;11.50;99.90
31991;DHT22;18508;49.386;8.370;2023-04-28T05:27:40;11.40;99.90
31991;DHT22;18508;49.386;8.370;2023-04-28T05:30:09;11.40;99.90
31991;DHT22;18508;49.386;8.370;2023-04-28T05:32:38;11.40;99.90
31991;DHT22;18508;49.386;8.370;2023-04-28T05:35:07;11.40;99.90
31991;DHT22;18508;49.386;8.370;2023-04-28T05:37:37;11.40;99.90
31991;DHT22;18508;49.386;8.370;2023-04-28T05:40:06;11.40;99.90
31991;DHT22;18508;49.386;8.370;2023-04-28T05:42:35;11.40;99.90
31991;DHT22;18508;49.386;8.370;2023-04-28T05:45:04;11.50;99.90
31991;DHT22;18508;49.386;8.370;2023-04-28T05:47:34;11.40;99.90
31991;DHT22;18508;49.386;8.370;2023-04-28T05:50:03;11.40;99.90
31991;DHT22;18508;49.386;8.370;2023-04-28T05:52:32;11.40;99.90
31991;DHT22;18508;49.386;8.370;2023-04-28T05:55:02;11.30;99.90
31991;DHT22;18508;49.386;8.370;2023-04-28T05:57:30;11.40;99.90
31991;DHT22;18508;49.386;8.370;2023-04-28T06:00:15;11.40;99.90
31991;DHT22;18508;49.386;8.370;2023-04-28T06:02:44;11.40;99.90
31991;DHT22;18508;49.386;8.370;2023-04-28T06:05:12;11.30;99.90
31991;DHT22;18508;49.386;8.370;2023-04-28T06:07:40;11.30;99.90
31991;DHT22;18508;49.386;8.370;2023-04-28T06:10:14;11.30;99.90
31991;DHT22;18508;49.386;8.370;2023-04-28T06:12:42;11.20;99.90
31991;DHT22;18508;49.386;8.370;2023-04-28T06:15:11;11.30;99.90
31991;DHT22;18508;49.386;8.370;2023-04-28T06:17:40;11.20;99.90
31991;DHT22;18508;49.386;8.370;2023-04-28T06:20:10;11.20;99.90
31991;DHT22;18508;49.386;8.370;2023-04-28T06:22:41;11.20;99.90
31991;DHT22;18508;49.386;8.370;2023-04-28T06:25:09;11.30;99.90
31991;DHT22;18508;49.386;8.370;2023-04-28T06:27:39;11.30;99.90
31991;DHT22;18508;49.386;8.370;2023-04-28T06:30:08;11.30;99.90
31991;DHT22;18508;49.386;8.370;2023-04-28T06:32:36;11.30;99.90
31991;DHT22;18508;49.386;8.370;2023-04-28T06:35:05;11.30;99.90
31991;DHT22;18508;49.386;8.370;2023-04-28T06:37:34;11.30;99.90
31991;DHT22;18508;49.386;8.370;2023-04-28T06:40:03;11.30;99.90
31991;DHT22;18508;49.386;8.370;2023-04-28T06:42:33;11.30;99.90
31991;DHT22;18508;49.386;8.370;2023-04-28T06:45:03;11.40;99.90
31991;DHT22;18508;49.386;8.370;2023-04-28T06:47:31;11.30;99.90
31991;DHT22;18508;49.386;8.370;2023-04-28T06:50:02;11.40;99.90
31991;DHT22;18508;49.386;8.370;2023-04-28T06:52:30;11.40;99.90
31991;DHT22;18508;49.386;8.370;2023-04-28T06:55:06;11.50;99.90
31991;DHT22;18508;49.386;8.370;2023-04-28T06:57:35;11.50;99.90
31991;DHT22;18508;49.386;8.370;2023-04-28T07:00:08;11.50;99.90
31991;DHT22;18508;49.386;8.370;2023-04-28T07:02:36;11.50;99.90
31991;DHT22;18508;49.386;8.370;2023-04-28T07:05:05;11.60;99.90
31991;DHT22;18508;49.386;8.370;2023-04-28T07:07:33;11.60;99.90
31991;DHT22;18508;49.386;8.370;2023-04-28T07:10:02;11.60;99.90
31991;DHT22;18508;49.386;8.370;2023-04-28T07:12:30;11.70;99.90
31991;DHT22;18508;49.386;8.370;2023-04-28T07:14:58;11.70;99.90
31991;DHT22;18508;49.386;8.370;2023-04-28T07:17:28;11.90;99.90
31991;DHT22;18508;49.386;8.370;2023-04-28T07:19:57;12.00;99.90
31991;DHT22;18508;49.386;8.370;2023-04-28T07:22:25;12.30;99.90
31991;DHT22;18508;49.386;8.370;2023-04-28T07:24:54;12.30;99.90
31991;DHT22;18508;49.386;8.370;2023-04-28T07:27:23;12.40;99.90
31991;DHT22;18508;49.386;8.370;2023-04-28T07:29:52;12.50;99.90
31991;DHT22;18508;49.386;8.370;2023-04-28T07:32:21;12.50;99.90
31991;DHT22;18508;49.386;8.370;2023-04-28T07:34:51;12.60;99.90
31991;DHT22;18508;49.386;8.370;2023-04-28T07:37:20;12.70;99.90
31991;DHT22;18508;49.386;8.370;2023-04-28T07:39:48;12.70;99.90
31991;DHT22;18508;49.386;8.370;2023-04-28T07:42:16;12.50;99.90
31991;DHT22;18508;49.386;8.370;2023-04-28T07:44:46;12.60;99.90
31991;DHT22;18508;49.386;8.370;2023-04-28T07:47:14;12.60;99.90
31991;DHT22;18508;49.386;8.370;2023-04-28T07:49:43;12.60;99.90
31991;DHT22;18508;49.386;8.370;2023-04-28T07:52:14;12.50;99.90
31991;DHT22;18508;49.386;8.370;2023-04-28T07:54:44;12.60;99.90
31991;DHT22;18508;49.386;8.370;2023-04-28T07:57:14;12.60;99.90
31991;DHT22;18508;49.386;8.370;2023-04-28T07:59:42;12.50;99.90
31991;DHT22;18508;49.386;8.370;2023-04-28T08:02:10;12.60;99.90
31991;DHT22;18508;49.386;8.370;2023-04-28T08:04:40;12.60;99.90
31991;DHT22;18508;49.386;8.370;2023-04-28T08:07:09;12.70;99.90
31991;DHT22;18508;49.386;8.370;2023-04-28T08:09:38;12.70;99.90
31991;DHT22;18508;49.386;8.370;2023-04-28T08:12:08;12.80;99.90
31991;DHT22;18508;49.386;8.370;2023-04-28T08:14:37;12.80;99.90
31991;DHT22;18508;49.386;8.370;2023-04-28T08:17:06;12.80;99.90
31991;DHT22;18508;49.386;8.370;2023-04-28T08:19:35;12.90;99.90
31991;DHT22;18508;49.386;8.370;2023-04-28T08:22:04;12.90;99.90
31991;DHT22;18508;49.386;8.370;2023-04-28T08:24:33;13.00;99.90
31991;DHT22;18508;49.386;8.370;2023-04-28T08:27:03;13.10;99.90
31991;DHT22;18508;49.386;8.370;2023-04-28T08:29:31;13.20;99.90
31991;DHT22;18508;49.386;8.370;2023-04-28T08:32:00;13.40;99.90
31991;DHT22;18508;49.386;8.370;2023-04-28T08:34:28;13.50;99.90
31991;DHT22;18508;49.386;8.370;2023-04-28T08:36:56;13.50;99.90
31991;DHT22;18508;49.386;8.370;2023-04-28T08:39:25;13.60;99.90
31991;DHT22;18508;49.386;8.370;2023-04-28T08:41:53;13.70;99.90
31991;DHT22;18508;49.386;8.370;2023-04-28T08:44:23;13.60;99.90
31991;DHT22;18508;49.386;8.370;2023-04-28T08:46:55;14.00;99.90
31991;DHT22;18508;49.386;8.370;2023-04-28T08:49:33;14.00;99.90
31991;DHT22;18508;49.386;8.370;2023-04-28T08:52:02;14.40;99.90
31991;DHT22;18508;49.386;8.370;2023-04-28T08:54:35;14.50;99.90
31991;DHT22;18508;49.386;8.370;2023-04-28T08:57:07;14.50;99.90
31991;DHT22;18508;49.386;8.370;2023-04-28T08:59:40;14.40;99.90
31991;DHT22;18508;49.386;8.370;2023-04-28T09:02:08;14.30;99.90
31991;DHT22;18508;49.386;8.370;2023-04-28T09:04:37;14.20;99.90
31991;DHT22;18508;49.386;8.370;2023-04-28T09:07:10;14.20;99.90
31991;DHT22;18508;49.386;8.370;2023-04-28T09:09:39;14.30;99.90
31991;DHT22;18508;49.386;8.370;2023-04-28T09:12:07;14.40;99.90
31991;DHT22;18508;49.386;8.370;2023-04-28T09:14:37;14.40;99.90
31991;DHT22;18508;49.386;8.370;2023-04-28T09:17:11;14.40;99.90
31991;DHT22;18508;49.386;8.370;2023-04-28T09:19:40;14.60;99.90
31991;DHT22;18508;49.386;8.370;2023-04-28T09:22:09;14.60;99.90
31991;DHT22;18508;49.386;8.370;2023-04-28T09:24:52;14.80;99.90
31991;DHT22;18508;49.386;8.370;2023-04-28T09:27:26;14.90;99.90
31991;DHT22;18508;49.386;8.370;2023-04-28T09:29:54;14.90;99.90
31991;DHT22;18508;49.386;8.370;2023-04-28T09:32:24;15.10;99.90
31991;DHT22;18508;49.386;8.370;2023-04-28T09:34:54;15.10;99.90
31991;DHT22;18508;49.386;8.370;2023-04-28T09:37:24;15.30;99.90
31991;DHT22;18508;49.386;8.370;2023-04-28T09:39:54;15.40;99.90
31991;DHT22;18508;49.386;8.370;2023-04-28T09:42:32;15.30;99.90
31991;DHT22;18508;49.386;8.370;2023-04-28T09:45:01;15.60;99.90
31991;DHT22;18508;49.386;8.370;2023-04-28T09:47:33;15.60;99.90
31991;DHT22;18508;49.386;8.370;2023-04-28T09:50:02;15.60;99.90
31991;DHT22;18508;49.386;8.370;2023-04-28T09:52:32;15.80;99.90
31991;DHT22;18508;49.386;8.370;2023-04-28T09:55:03;16.00;99.90
31991;DHT22;18508;49.386;8.370;2023-04-28T09:57:35;15.70;99.90
31991;DHT22;18508;49.386;8.370;2023-04-28T10:00:05;15.80;99.90
31991;DHT22;18508;49.386;8.370;2023-04-28T10:02:40;15.70;99.90
31991;DHT22;18508;49.386;8.370;2023-04-28T10:05:10;15.60;99.90
31991;DHT22;18508;49.386;8.370;2023-04-28T10:07:39;15.60;99.90
31991;DHT22;18508;49.386;8.370;2023-04-28T10:10:09;15.20;99.90
31991;DHT22;18508;49.386;8.370;2023-04-28T10:12:37;15.20;99.90
31991;DHT22;18508;49.386;8.370;2023-04-28T10:15:06;15.20;99.90
31991;DHT22;18508;49.386;8.370;2023-04-28T10:17:39;15.00;99.90
31991;DHT22;18508;49.386;8.370;2023-04-28T10:20:08;15.10;99.90
31991;DHT22;18508;49.386;8.370;2023-04-28T10:22:51;15.00;99.90
31991;DHT22;18508;49.386;8.370;2023-04-28T10:25:26;15.00;99.90
31991;DHT22;18508;49.386;8.370;2023-04-28T10:27:54;15.00;99.90
31991;DHT22;18508;49.386;8.370;2023-04-28T10:30:24;15.00;99.90
31991;DHT22;18508;49.386;8.370;2023-04-28T10:33:24;15.10;99.90
31991;DHT22;18508;49.386;8.370;2023-04-28T10:35:55;15.10;99.90
31991;DHT22;18508;49.386;8.370;2023-04-28T10:38:25;15.20;99.90
31991;DHT22;18508;49.386;8.370;2023-04-28T10:40:54;15.20;99.90
31991;DHT22;18508;49.386;8.370;2023-04-28T10:43:37;15.30;99.90
31991;DHT22;18508;49.386;8.370;2023-04-28T10:46:07;15.40;99.90
31991;DHT22;18508;49.386;8.370;2023-04-28T10:48:56;15.60;99.90
31991;DHT22;18508;49.386;8.370;2023-04-28T10:51:28;15.80;99.90
31991;DHT22;18508;49.386;8.370;2023-04-28T10:54:26;16.10;99.90
31991;DHT22;18508;49.386;8.370;2023-04-28T10:57:15;16.20;99.90
31991;DHT22;18508;49.386;8.370;2023-04-28T11:00:27;16.30;99.90
31991;DHT22;18508;49.386;8.370;2023-04-28T11:02:56;16.50;99.90
31991;DHT22;18508;49.386;8.370;2023-04-28T11:05:27;16.50;99.90
31991;DHT22;18508;49.386;8.370;2023-04-28T11:08:30;16.70;99.90
31991;DHT22;18508;49.386;8.370;2023-04-28T11:11:16;16.90;99.90
31991;DHT22;18508;49.386;8.370;2023-04-28T11:13:45;17.10;99.90
31991;DHT22;18508;49.386;8.370;2023-04-28T11:16:15;17.10;99.90
31991;DHT22;18508;49.386;8.370;2023-04-28T11:18:59;17.20;99.90
31991;DHT22;18508;49.386;8.370;2023-04-28T11:21:32;17.00;99.90
31991;DHT22;18508;49.386;8.370;2023-04-28T11:24:07;16.90;99.90
31991;DHT22;18508;49.386;8.370;2023-04-28T11:26:37;16.80;99.90
31991;DHT22;18508;49.386;8.370;2023-04-28T11:29:05;16.60;99.90
31991;DHT22;18508;49.386;8.370;2023-04-28T11:31:34;16.50;99.90
31991;DHT22;18508;49.386;8.370;2023-04-28T11:34:05;16.50;99.90
31991;DHT22;18508;49.386;8.370;2023-04-28T11:36:39;16.10;99.90
31991;DHT22;18508;49.386;8.370;2023-04-28T11:39:08;16.10;99.90
31991;DHT22;18508;49.386;8.370;2023-04-28T11:41:44;16.20;99.90
31991;DHT22;18508;49.386;8.370;2023-04-28T11:44:14;16.30;99.90
31991;DHT22;18508;49.386;8.370;2023-04-28T11:46:46;16.40;99.90
31991;DHT22;18508;49.386;8.370;2023-04-28T11:49:17;16.50;99.90
31991;DHT22;18508;49.386;8.370;2023-04-28T11:51:47;16.50;99.90
31991;DHT22;18508;49.386;8.370;2023-04-28T11:54:20;16.60;99.90
31991;DHT22;18508;49.386;8.370;2023-04-28T11:56:49;16.60;99.90
31991;DHT22;18508;49.386;8.370;2023-04-28T11:59:18;16.70;99.90
31991;DHT22;18508;49.386;8.370;2023-04-28T12:01:56;17.00;99.90
31991;DHT22;18508;49.386;8.370;2023-04-28T12:04:26;17.00;99.90
31991;DHT22;18508;49.386;8.370;2023-04-28T12:07:01;17.20;99.90
31991;DHT22;18508;49.386;8.370;2023-04-28T12:09:30;17.20;99.90
31991;DHT22;18508;49.386;8.370;2023-04-28T12:11:59;17.50;99.90
31991;DHT22;18508;49.386;8.370;2023-04-28T12:14:29;17.80;99.90
31991;DHT22;18508;49.386;8.370;2023-04-28T12:17:01;17.90;99.90
31991;DHT22;18508;49.386;8.370;2023-04-28T12:19:31;18.00;99.90
31991;DHT22;18508;49.386;8.370;2023-04-28T12:22:11;18.10;99.90
31991;DHT22;18508;49.386;8.370;2023-04-28T12:24:43;18.00;99.90
31991;DHT22;18508;49.386;8.370;2023-04-28T12:27:15;17.90;99.90
31991;DHT22;18508;49.386;8.370;2023-04-28T12:29:44;18.00;99.90
31991;DHT22;18508;49.386;8.370;2023-04-28T12:32:13;17.80;99.90
31991;DHT22;18508;49.386;8.370;2023-04-28T12:34:43;17.90;99.90
31991;DHT22;18508;49.386;8.370;2023-04-28T12:37:13;18.10;99.90
31991;DHT22;18508;49.386;8.370;2023-04-28T12:39:41;18.20;99.90
31991;DHT22;18508;49.386;8.370;2023-04-28T12:42:12;18.30;99.90
31991;DHT22;18508;49.386;8.370;2023-04-28T12:44:40;18.40;99.90
31991;DHT22;18508;49.386;8.370;2023-04-28T12:47:09;18.30;99.90
31991;DHT22;18508;49.386;8.370;2023-04-28T12:49:38;18.30;99.90
31991;DHT22;18508;49.386;8.370;2023-04-28T12:52:07;18.50;99.90
31991;DHT22;18508;49.386;8.370;2023-04-28T12:54:37;18.50;99.90
31991;DHT22;18508;49.386;8.370;2023-04-28T12:57:05;18.80;99.90
31991;DHT22;18508;49.386;8.370;2023-04-28T12:59:33;19.00;99.90
31991;DHT22;18508;49.386;8.370;2023-04-28T13:02:01;19.60;99.90
31991;DHT22;18508;49.386;8.370;2023-04-28T13:04:30;20.00;99.90
31991;DHT22;18508;49.386;8.370;2023-04-28T13:06:58;20.10;99.90
31991;DHT22;18508;49.386;8.370;2023-04-28T13:09:27;20.20;99.90
31991;DHT22;18508;49.386;8.370;2023-04-28T13:11:57;20.10;99.90
31991;DHT22;18508;49.386;8.370;2023-04-28T13:14:25;20.40;99.90
31991;DHT22;18508;49.386;8.370;2023-04-28T13:16:54;21.00;99.90
31991;DHT22;18508;49.386;8.370;2023-04-28T13:19:23;21.60;99.90
31991;DHT22;18508;49.386;8.370;2023-04-28T13:21:52;21.50;99.90
31991;DHT22;18508;49.386;8.370;2023-04-28T13:24:20;21.20;99.90
31991;DHT22;18508;49.386;8.370;2023-04-28T13:26:50;21.10;99.90
31991;DHT22;18508;49.386;8.370;2023-04-28T13:29:22;21.40;99.90
31991;DHT22;18508;49.386;8.370;2023-04-28T13:31:50;21.40;99.90
31991;DHT22;18508;49.386;8.370;2023-04-28T13:34:20;21.30;99.90
31991;DHT22;18508;49.386;8.370;2023-04-28T13:36:48;21.40;99.90
31991;DHT22;18508;49.386;8.370;2023-04-28T13:39:19;21.70;99.90
31991;DHT22;18508;49.386;8.370;2023-04-28T13:41:48;22.00;99.90
31991;DHT22;18508;49.386;8.370;2023-04-28T13:44:16;22.40;99.90
31991;DHT22;18508;49.386;8.370;2023-04-28T13:46:46;22.60;99.90
31991;DHT22;18508;49.386;8.370;2023-04-28T13:49:15;22.70;99.90
31991;DHT22;18508;49.386;8.370;2023-04-28T13:51:43;23.10;99.90
31991;DHT22;18508;49.386;8.370;2023-04-28T13:54:12;23.40;99.90
31991;DHT22;18508;49.386;8.370;2023-04-28T13:56:42;23.10;48.20
31991;DHT22;18508;49.386;8.370;2023-04-28T13:59:10;23.30;37.10
31991;DHT22;18508;49.386;8.370;2023-04-28T14:01:42;23.20;8.60
31991;DHT22;18508;49.386;8.370;2023-04-28T14:04:13;22.80;99.90
31991;DHT22;18508;49.386;8.370;2023-04-28T14:06:42;22.50;99.90
31991;DHT22;18508;49.386;8.370;2023-04-28T14:09:11;22.00;99.90
31991;DHT22;18508;49.386;8.370;2023-04-28T14:11:39;21.50;99.90
31991;DHT22;18508;49.386;8.370;2023-04-28T14:14:07;21.10;99.90
31991;DHT22;18508;49.386;8.370;2023-04-28T14:16:36;20.90;99.90
31991;DHT22;18508;49.386;8.370;2023-04-28T14:19:04;20.30;99.90
31991;DHT22;18508;49.386;8.370;2023-04-28T14:21:36;20.20;99.90
31991;DHT22;18508;49.386;8.370;2023-04-28T14:24:05;20.00;99.90
31991;DHT22;18508;49.386;8.370;2023-04-28T14:26:33;19.80;99.90
31991;DHT22;18508;49.386;8.370;2023-04-28T14:29:01;19.60;99.90
31991;DHT22;18508;49.386;8.370;2023-04-28T14:31:31;19.40;99.90
31991;DHT22;18508;49.386;8.370;2023-04-28T14:34:00;19.40;99.90
31991;DHT22;18508;49.386;8.370;2023-04-28T14:36:29;19.20;99.90
31991;DHT22;18508;49.386;8.370;2023-04-28T14:39:00;19.10;99.90
31991;DHT22;18508;49.386;8.370;2023-04-28T14:41:28;18.90;99.90
31991;DHT22;18508;49.386;8.370;2023-04-28T14:43:56;18.90;99.90
31991;DHT22;18508;49.386;8.370;2023-04-28T14:46:24;19.00;99.90
31991;DHT22;18508;49.386;8.370;2023-04-28T14:48:53;18.90;99.90
31991;DHT22;18508;49.386;8.370;2023-04-28T14:51:21;18.80;99.90
31991;DHT22;18508;49.386;8.370;2023-04-28T14:53:51;18.60;99.90
31991;DHT22;18508;49.386;8.370;2023-04-28T14:56:22;18.40;99.90
31991;DHT22;18508;49.386;8.370;2023-04-28T14:58:53;17.90;99.90
31991;DHT22;18508;49.386;8.370;2023-04-28T15:01:22;17.70;99.90
31991;DHT22;18508;49.386;8.370;2023-04-28T15:03:51;17.60;99.90
31991;DHT22;18508;49.386;8.370;2023-04-28T15:06:20;17.40;99.90
31991;DHT22;18508;49.386;8.370;2023-04-28T15:08:48;17.30;99.90
31991;DHT22;18508;49.386;8.370;2023-04-28T15:11:17;17.00;99.90
31991;DHT22;18508;49.386;8.370;2023-04-28T15:13:47;17.00;99.90
31991;DHT22;18508;49.386;8.370;2023-04-28T15:16:15;17.00;99.90
31991;DHT22;18508;49.386;8.370;2023-04-28T15:18:43;17.00;99.90
31991;DHT22;18508;49.386;8.370;2023-04-28T15:21:12;17.00;99.90
31991;DHT22;18508;49.386;8.370;2023-04-28T15:23:42;17.00;99.90
31991;DHT22;18508;49.386;8.370;2023-04-28T15:26:10;17.00;99.90
31991;DHT22;18508;49.386;8.370;2023-04-28T15:28:39;17.10;99.90
31991;DHT22;18508;49.386;8.370;2023-04-28T15:31:09;17.30;99.90
31991;DHT22;18508;49.386;8.370;2023-04-28T15:33:37;17.40;99.90
31991;DHT22;18508;49.386;8.370;2023-04-28T15:36:05;17.60;99.90
31991;DHT22;18508;49.386;8.370;2023-04-28T15:38:34;17.70;99.90
31991;DHT22;18508;49.386;8.370;2023-04-28T15:41:04;17.70;99.90
31991;DHT22;18508;49.386;8.370;2023-04-28T15:43:32;17.80;99.90
31991;DHT22;18508;49.386;8.370;2023-04-28T15:46:00;17.80;99.90
31991;DHT22;18508;49.386;8.370;2023-04-28T15:48:31;18.10;99.90
31991;DHT22;18508;49.386;8.370;2023-04-28T15:51:00;18.10;99.90
31991;DHT22;18508;49.386;8.370;2023-04-28T15:53:28;18.30;99.90